Time;durP1;ratioP1;P1;durP2;ratioP2;P2;SDS_P1;SDS_P2;PMS_P1;PMS_P2;Temp;Humidity;BMP_temperature;BMP_pressure;BME280_temperature;BME280_humidity;BME280_pressure;Samples;Min_cycle;Max_cycle;Signal;HPM_P1;HPM_P2
2022/02/27 00:01:36;;;;;;;20.10;11.73;;;22.90;37.30;;;;;;6149404;28;85110;-64
2022/02/27 00:04:36;;;;;;;20.98;12.20;;;23.00;37.30;;;;;;6155134;28;84167;-64
2022/02/27 00:07:37;;;;;;;24.27;12.45;;;23.00;37.20;;;;;;6154367;28;83944;-65
2022/02/27 00:10:38;;;;;;;18.50;10.85;;;23.00;37.20;;;;;;6155115;28;90025;-64
2022/02/27 00:13:38;;;;;;;22.55;13.23;;;22.90;37.10;;;;;;6149662;28;84485;-64
2022/02/27 00:16:39;;;;;;;27.42;11.50;;;22.90;37.00;;;;;;6141015;28;83078;-64
2022/02/27 00:19:39;;;;;;;18.77;11.02;;;22.90;37.00;;;;;;6147883;28;82714;-63
2022/02/27 00:22:40;;;;;;;19.58;12.13;;;22.90;37.00;;;;;;6156075;28;84596;-64
2022/02/27 00:25:40;;;;;;;21.25;11.85;;;22.90;37.00;;;;;;6151448;28;83232;-63
2022/02/27 00:28:41;;;;;;;19.08;11.57;;;22.90;36.90;;;;;;6155525;28;83097;-64
2022/02/27 00:31:42;;;;;;;19.98;11.80;;;22.90;36.90;;;;;;6155949;28;84420;-64
2022/02/27 00:34:42;;;;;;;18.42;11.48;;;22.90;36.80;;;;;;6154546;28;84712;-63
2022/02/27 00:37:44;;;;;;;20.73;11.75;;;22.90;36.80;;;;;;6147826;28;83347;-64
2022/02/27 00:40:45;;;;;;;18.38;11.02;;;22.90;36.60;;;;;;6156958;28;83643;-64
2022/02/27 00:43:45;;;;;;;18.92;11.48;;;22.90;36.80;;;;;;6153357;28;83305;-64
2022/02/27 00:46:46;;;;;;;22.15;11.80;;;22.90;36.80;;;;;;6155381;28;85795;-64
2022/02/27 00:49:46;;;;;;;20.65;13.05;;;22.90;36.70;;;;;;6171393;28;84208;-64
2022/02/27 00:52:47;;;;;;;18.80;11.15;;;22.90;36.60;;;;;;6185824;28;85900;-64
2022/02/27 00:55:48;;;;;;;20.50;11.45;;;22.90;36.60;;;;;;6187008;28;85954;-64
2022/02/27 00:58:50;;;;;;;21.00;11.63;;;22.80;36.50;;;;;;6155650;28;86280;-64
2022/02/27 01:01:50;;;;;;;19.92;11.43;;;22.90;36.40;;;;;;6153340;28;83118;-64
2022/02/27 01:04:51;;;;;;;22.77;11.60;;;22.90;36.40;;;;;;6151887;28;83594;-64
2022/02/27 01:07:51;;;;;;;21.42;12.10;;;22.90;36.30;;;;;;6164113;28;85594;-64
2022/02/27 01:10:52;;;;;;;18.17;11.32;;;22.80;36.40;;;;;;6152823;28;84625;-64
2022/02/27 01:13:53;;;;;;;25.20;12.05;;;22.90;36.40;;;;;;6155783;28;83856;-64
2022/02/27 01:16:53;;;;;;;17.60;10.60;;;22.80;36.20;;;;;;6140454;28;82814;-65
2022/02/27 01:19:54;;;;;;;20.30;11.70;;;22.80;36.30;;;;;;6155136;28;84977;-65
2022/02/27 01:22:54;;;;;;;18.98;11.65;;;22.80;36.30;;;;;;6152619;28;83905;-65
2022/02/27 01:25:55;;;;;;;21.60;11.48;;;22.80;36.30;;;;;;6145016;28;83101;-65
2022/02/27 01:28:55;;;;;;;20.75;12.55;;;22.80;36.20;;;;;;6176841;28;84554;-65
2022/02/27 01:31:56;;;;;;;19.92;11.82;;;22.80;36.10;;;;;;6173230;28;85890;-65
2022/02/27 01:34:57;;;;;;;20.17;11.68;;;22.80;36.10;;;;;;6151414;28;84621;-65
2022/02/27 01:37:57;;;;;;;18.42;10.30;;;22.80;36.10;;;;;;6155496;28;83346;-65
2022/02/27 01:40:58;;;;;;;20.05;11.73;;;22.80;36.10;;;;;;6147978;28;84589;-64
2022/02/27 01:43:58;;;;;;;23.40;12.15;;;22.80;36.10;;;;;;6147724;28;86005;-64
2022/02/27 01:46:59;;;;;;;17.20;11.77;;;22.80;36.00;;;;;;6180507;28;86104;-64
2022/02/27 01:50:00;;;;;;;21.33;11.18;;;22.80;36.10;;;;;;6144000;28;84342;-63
2022/02/27 01:53:00;;;;;;;28.42;11.95;;;22.80;36.10;;;;;;6152195;28;83188;-64
2022/02/27 01:56:01;;;;;;;21.15;11.88;;;22.80;36.10;;;;;;6155472;28;83521;-64
2022/02/27 01:59:02;;;;;;;21.85;11.13;;;22.70;36.00;;;;;;6154594;28;84230;-64
2022/02/27 02:02:04;;;;;;;21.90;11.18;;;22.70;36.00;;;;;;6151547;28;85584;-64
2022/02/27 02:05:05;;;;;;;21.30;10.82;;;22.80;36.00;;;;;;6143595;28;83503;-64
2022/02/27 02:08:06;;;;;;;22.05;11.50;;;22.80;36.00;;;;;;6148610;28;83661;-64
2022/02/27 02:11:08;;;;;;;22.10;11.75;;;22.80;36.00;;;;;;6142298;28;86067;-64
2022/02/27 02:14:08;;;;;;;20.98;12.18;;;22.80;36.00;;;;;;6154572;28;83684;-66
2022/02/27 02:17:09;;;;;;;20.75;12.02;;;22.70;35.90;;;;;;6152237;28;83026;-64
2022/02/27 02:20:11;;;;;;;20.38;11.15;;;22.70;36.20;;;;;;6152602;28;85590;-64
2022/02/27 02:23:22;;;;;;;20.85;11.15;;;22.70;36.20;;;;;;6142338;28;89007;-64
2022/02/27 02:26:23;;;;;;;19.27;10.95;;;22.70;36.20;;;;;;6154465;28;86264;-64
2022/02/27 02:29:24;;;;;;;19.85;10.40;;;22.70;36.30;;;;;;6150905;28;85239;-64
2022/02/27 02:32:25;;;;;;;16.92;10.25;;;22.70;36.10;;;;;;6150763;28;85062;-64
2022/02/27 02:35:25;;;;;;;19.80;11.10;;;22.70;36.00;;;;;;6155455;28;83333;-64
2022/02/27 02:38:26;;;;;;;17.55;9.80;;;22.70;36.10;;;;;;6144317;28;84092;-64
2022/02/27 02:41:27;;;;;;;18.35;10.80;;;22.70;36.10;;;;;;6172596;28;85884;-65
2022/02/27 02:44:28;;;;;;;17.75;10.75;;;22.70;36.00;;;;;;6151413;28;84218;-64
2022/02/27 02:47:28;;;;;;;24.02;11.93;;;22.70;36.00;;;;;;6153374;28;86288;-64
2022/02/27 02:50:29;;;;;;;20.23;12.07;;;22.70;35.90;;;;;;6147821;28;84085;-65
2022/02/27 02:53:29;;;;;;;20.85;10.57;;;22.70;35.90;;;;;;6119898;28;84879;-64
2022/02/27 02:56:30;;;;;;;17.38;10.55;;;22.70;35.70;;;;;;6181607;28;86012;-65
2022/02/27 02:59:30;;;;;;;17.42;9.73;;;22.70;35.90;;;;;;6156392;28;84041;-63
2022/02/27 03:02:31;;;;;;;19.75;11.15;;;22.70;35.90;;;;;;6153890;28;82889;-64
2022/02/27 03:05:32;;;;;;;18.95;10.10;;;22.70;35.80;;;;;;6150037;28;83074;-62
2022/02/27 03:08:32;;;;;;;18.15;11.10;;;22.70;35.80;;;;;;6155595;28;83769;-64
2022/02/27 03:11:33;;;;;;;18.33;10.70;;;22.70;35.90;;;;;;6156201;28;85014;-62
2022/02/27 03:14:33;;;;;;;18.63;9.95;;;22.70;35.90;;;;;;6158595;28;85275;-63
2022/02/27 03:17:34;;;;;;;25.10;11.52;;;22.70;35.90;;;;;;6148711;28;82817;-62
2022/02/27 03:20:34;;;;;;;25.50;11.75;;;22.70;35.90;;;;;;6156067;28;83070;-63
2022/02/27 03:23:35;;;;;;;16.92;9.63;;;22.70;35.90;;;;;;6153937;28;84891;-62
2022/02/27 03:26:36;;;;;;;21.85;11.75;;;22.70;35.90;;;;;;6152851;28;83328;-63
2022/02/27 03:29:36;;;;;;;19.98;10.18;;;22.70;35.90;;;;;;6180547;28;83154;-62
2022/02/27 03:32:37;;;;;;;17.98;9.98;;;22.70;35.80;;;;;;6147735;28;84096;-63
2022/02/27 03:35:38;;;;;;;18.13;10.55;;;22.70;35.80;;;;;;6139566;28;83119;-62
2022/02/27 03:38:38;;;;;;;20.42;10.68;;;22.70;35.90;;;;;;6148796;28;83235;-64
2022/02/27 03:41:39;;;;;;;18.45;10.48;;;22.60;36.20;;;;;;6155013;28;83488;-64
2022/02/27 03:44:39;;;;;;;16.50;10.30;;;22.70;36.10;;;;;;6146963;28;83153;-63
2022/02/27 03:47:41;;;;;;;20.77;10.65;;;22.70;36.00;;;;;;6149019;28;82876;-63
2022/02/27 03:50:41;;;;;;;18.17;10.63;;;22.70;35.90;;;;;;6152974;28;83255;-63
2022/02/27 03:53:42;;;;;;;18.85;10.20;;;22.70;35.90;;;;;;6148706;28;83326;-63
2022/02/27 03:56:42;;;;;;;19.73;11.38;;;22.70;36.00;;;;;;6144398;28;84374;-63
2022/02/27 03:59:43;;;;;;;20.65;10.93;;;22.70;35.90;;;;;;6149410;28;83329;-62
2022/02/27 04:02:46;;;;;;;18.98;10.75;;;22.70;35.90;;;;;;6138707;28;83534;-63
2022/02/27 04:05:47;;;;;;;19.50;10.70;;;22.70;35.90;;;;;;6141266;28;84038;-64
2022/02/27 04:08:47;;;;;;;21.92;12.25;;;22.70;35.90;;;;;;6156710;28;83132;-63
2022/02/27 04:11:48;;;;;;;22.83;10.95;;;22.70;35.70;;;;;;6144723;28;84682;-62
2022/02/27 04:14:48;;;;;;;22.60;12.18;;;22.70;36.10;;;;;;6148655;28;83295;-63
2022/02/27 04:17:49;;;;;;;22.13;12.07;;;22.70;35.70;;;;;;6150866;28;83890;-62
2022/02/27 04:20:49;;;;;;;22.52;12.18;;;22.80;35.70;;;;;;6153426;28;82980;-63
2022/02/27 04:23:50;;;;;;;20.10;10.77;;;22.80;35.60;;;;;;6142726;28;83491;-63
2022/02/27 04:26:53;;;;;;;24.58;12.68;;;22.90;36.20;;;;;;6145042;28;84013;-63
2022/02/27 04:29:54;;;;;;;21.58;12.55;;;22.90;36.20;;;;;;6151561;28;83831;-63
2022/02/27 04:32:54;;;;;;;25.52;13.38;;;23.00;35.80;;;;;;6154114;28;82941;-63
2022/02/27 04:35:55;;;;;;;24.02;12.98;;;23.00;35.60;;;;;;6143927;28;84538;-63
2022/02/27 04:38:55;;;;;;;24.05;13.85;;;23.10;35.60;;;;;;6148151;28;84253;-63
2022/02/27 04:41:56;;;;;;;22.85;12.32;;;23.10;35.50;;;;;;6153122;28;84231;-63
2022/02/27 04:44:56;;;;;;;23.02;11.93;;;23.10;35.50;;;;;;6141406;28;83436;-63
2022/02/27 04:47:57;;;;;;;21.45;11.90;;;23.20;35.60;;;;;;6146407;28;83225;-63
2022/02/27 04:50:57;;;;;;;26.05;13.25;;;23.20;35.50;;;;;;6146209;28;83226;-63
2022/02/27 04:53:58;;;;;;;20.17;11.68;;;23.20;35.40;;;;;;6150350;28;83905;-63
2022/02/27 04:56:58;;;;;;;21.15;12.48;;;23.30;35.70;;;;;;6154408;28;83294;-63
2022/02/27 05:00:00;;;;;;;23.63;12.65;;;23.30;35.60;;;;;;6141076;28;83142;-62
2022/02/27 05:03:01;;;;;;;22.88;12.25;;;23.30;35.60;;;;;;6147805;28;83220;-62
2022/02/27 05:06:01;;;;;;;23.15;12.73;;;23.30;35.80;;;;;;6153393;28;83208;-62
2022/02/27 05:09:02;;;;;;;22.40;12.48;;;23.40;35.90;;;;;;6154363;28;83049;-63
2022/02/27 05:12:02;;;;;;;25.83;12.43;;;23.40;35.90;;;;;;6139981;28;83257;-62
2022/02/27 05:15:03;;;;;;;23.05;12.98;;;23.40;36.10;;;;;;6153573;28;85919;-65
2022/02/27 05:18:03;;;;;;;18.10;10.48;;;23.40;36.10;;;;;;6152042;28;83528;-62
2022/02/27 05:21:05;;;;;;;20.73;11.85;;;23.40;36.00;;;;;;6154419;28;83140;-62
2022/02/27 05:24:05;;;;;;;22.08;11.98;;;23.40;35.90;;;;;;6154634;28;83251;-62
2022/02/27 05:27:06;;;;;;;22.65;12.15;;;23.50;35.70;;;;;;6154386;28;83392;-62
2022/02/27 05:30:07;;;;;;;20.60;11.43;;;23.40;35.50;;;;;;6154524;28;83398;-62
2022/02/27 05:33:07;;;;;;;19.75;11.70;;;23.40;35.50;;;;;;6144951;28;83567;-63
2022/02/27 05:36:08;;;;;;;21.20;11.15;;;23.50;35.40;;;;;;6147242;28;84717;-63
2022/02/27 05:39:08;;;;;;;21.98;11.90;;;23.50;35.60;;;;;;6142944;28;82721;-62
2022/02/27 05:42:09;;;;;;;25.73;12.68;;;23.50;35.60;;;;;;6150935;28;83883;-62
2022/02/27 05:45:11;;;;;;;19.60;10.73;;;23.50;35.40;;;;;;6153443;28;83616;-63
2022/02/27 05:48:11;;;;;;;23.38;11.63;;;23.50;35.40;;;;;;6148484;28;84501;-64
2022/02/27 05:51:12;;;;;;;21.23;11.98;;;23.50;35.40;;;;;;6144847;28;84427;-64
2022/02/27 05:54:12;;;;;;;25.48;11.52;;;23.50;35.40;;;;;;6152626;28;83051;-65
2022/02/27 05:57:13;;;;;;;21.40;11.40;;;23.50;35.60;;;;;;6152414;28;83145;-65
2022/02/27 06:00:13;;;;;;;20.08;11.48;;;23.50;35.70;;;;;;6145653;28;83347;-64
2022/02/27 06:03:15;;;;;;;22.20;11.95;;;23.60;35.70;;;;;;6149463;28;83004;-64
2022/02/27 06:06:16;;;;;;;23.10;12.05;;;23.50;35.70;;;;;;6175886;28;83362;-64
2022/02/27 06:09:16;;;;;;;21.05;10.45;;;23.50;35.70;;;;;;6153518;28;83178;-64
2022/02/27 06:12:17;;;;;;;23.27;10.75;;;23.50;35.90;;;;;;6139590;28;83174;-65
2022/02/27 06:15:17;;;;;;;20.98;11.00;;;23.50;35.80;;;;;;6148928;28;83096;-64
2022/02/27 06:18:18;;;;;;;18.35;10.43;;;23.50;36.40;;;;;;6146043;28;90113;-64
2022/02/27 06:21:18;;;;;;;20.02;10.45;;;23.50;36.70;;;;;;6144811;28;83030;-63
2022/02/27 06:24:19;;;;;;;18.67;10.38;;;23.60;36.30;;;;;;6148713;28;84192;-64
2022/02/27 06:27:19;;;;;;;16.73;10.00;;;23.60;36.90;;;;;;6151527;28;82960;-64
2022/02/27 06:30:20;;;;;;;21.38;10.77;;;23.50;37.00;;;;;;6153450;28;84344;-68
2022/02/27 06:33:21;;;;;;;20.65;10.10;;;23.50;37.60;;;;;;6153936;28;83401;-62
2022/02/27 06:36:21;;;;;;;19.35;9.95;;;23.60;37.70;;;;;;6155956;28;87290;-60
2022/02/27 06:39:22;;;;;;;21.42;10.32;;;23.50;37.10;;;;;;6150708;28;82829;-62
2022/02/27 06:42:22;;;;;;;18.25;9.77;;;23.50;37.00;;;;;;6143448;28;83329;-61
2022/02/27 06:45:23;;;;;;;20.92;11.43;;;23.50;36.70;;;;;;6160023;28;84060;-61
2022/02/27 06:48:23;;;;;;;23.63;10.18;;;23.50;36.30;;;;;;6144957;28;83933;-65
2022/02/27 06:51:25;;;;;;;18.13;9.88;;;23.50;38.40;;;;;;6158482;28;82953;-63
2022/02/27 06:54:25;;;;;;;19.15;9.75;;;23.50;39.80;;;;;;6152246;28;83454;-63
2022/02/27 06:57:26;;;;;;;20.15;9.95;;;23.50;39.50;;;;;;6154809;28;80377;-66
2022/02/27 07:00:26;;;;;;;21.92;10.00;;;23.50;38.80;;;;;;6152105;28;80528;-65
2022/02/27 07:03:27;;;;;;;20.08;11.50;;;23.50;39.50;;;;;;6152629;28;83136;-68
2022/02/27 07:06:27;;;;;;;20.58;11.13;;;23.50;39.80;;;;;;6151776;28;83429;-65
2022/02/27 07:09:28;;;;;;;20.05;10.85;;;23.50;40.10;;;;;;6158713;28;85772;-64
2022/02/27 07:12:28;;;;;;;20.13;10.93;;;23.50;40.30;;;;;;6151801;28;84311;-64
2022/02/27 07:15:29;;;;;;;27.02;11.35;;;23.50;40.30;;;;;;6156312;28;82726;-67
2022/02/27 07:18:29;;;;;;;20.65;11.23;;;23.40;40.00;;;;;;6156588;28;83773;-67
2022/02/27 07:21:30;;;;;;;17.85;9.95;;;23.40;40.80;;;;;;6155020;28;83208;-65
2022/02/27 07:24:30;;;;;;;25.63;10.40;;;23.40;41.20;;;;;;6158710;28;83049;-66
2022/02/27 07:27:31;;;;;;;20.15;11.77;;;23.40;41.60;;;;;;6153303;28;83084;-65
2022/02/27 07:30:32;;;;;;;22.50;11.25;;;23.40;41.00;;;;;;6185228;28;85288;-65
2022/02/27 07:33:33;;;;;;;20.42;11.18;;;23.40;41.60;;;;;;6155327;28;84117;-66
2022/02/27 07:36:33;;;;;;;18.77;11.10;;;23.50;41.20;;;;;;6153155;28;85003;-68
2022/02/27 07:39:34;;;;;;;17.08;10.05;;;23.40;40.80;;;;;;6148104;28;85362;-66
2022/02/27 07:42:35;;;;;;;21.65;10.88;;;23.50;41.80;;;;;;6152347;28;83082;-66
2022/02/27 07:45:35;;;;;;;19.02;10.45;;;23.50;41.10;;;;;;6157418;28;83242;-63
2022/02/27 07:48:36;;;;;;;22.58;11.07;;;23.50;40.70;;;;;;6156823;28;83090;-65
2022/02/27 07:51:36;;;;;;;21.13;12.13;;;23.50;40.60;;;;;;6139101;28;84831;-67
2022/02/27 07:54:37;;;;;;;22.73;11.27;;;23.50;40.60;;;;;;6152085;28;83054;-65
2022/02/27 07:57:37;;;;;;;19.08;10.35;;;23.50;41.20;;;;;;6157326;28;83212;-67
2022/02/27 08:00:38;;;;;;;14.75;9.07;;;23.30;42.90;;;;;;6156184;28;84371;-65
2022/02/27 08:03:38;;;;;;;14.98;8.68;;;23.20;44.00;;;;;;6159744;28;83139;-65
2022/02/27 08:06:39;;;;;;;13.80;7.85;;;23.10;44.90;;;;;;6158321;28;80984;-65
2022/02/27 08:09:40;;;;;;;15.48;8.05;;;23.10;45.30;;;;;;6155400;28;80491;-71
2022/02/27 08:12:40;;;;;;;13.02;7.80;;;23.00;46.00;;;;;;6154090;28;80819;-66
2022/02/27 08:15:41;;;;;;;12.35;7.30;;;23.00;46.20;;;;;;6152156;28;80601;-65
2022/02/27 08:18:41;;;;;;;11.23;6.82;;;23.00;46.80;;;;;;6153503;28;80376;-67
2022/02/27 08:21:42;;;;;;;13.65;6.82;;;23.00;46.40;;;;;;6158807;28;80108;-66
2022/02/27 08:24:42;;;;;;;11.60;6.45;;;23.00;46.90;;;;;;6143492;28;80618;-65
2022/02/27 08:27:43;;;;;;;10.68;5.82;;;23.10;47.40;;;;;;6143208;28;81593;-67
2022/02/27 08:30:43;;;;;;;10.90;6.30;;;23.20;47.00;;;;;;6159873;28;81161;-63
2022/02/27 08:33:44;;;;;;;10.70;5.50;;;23.40;47.50;;;;;;6158343;28;81701;-61
2022/02/27 08:36:44;;;;;;;9.20;5.78;;;23.40;47.60;;;;;;6156587;28;81013;-64
2022/02/27 08:39:45;;;;;;;6.85;4.85;;;23.30;47.10;;;;;;6157253;28;80883;-60
2022/02/27 08:42:45;;;;;;;11.18;6.50;;;23.30;47.80;;;;;;6153746;28;81040;-62
2022/02/27 08:45:46;;;;;;;12.82;6.18;;;23.40;45.90;;;;;;6158369;28;80585;-62
2022/02/27 08:48:46;;;;;;;12.52;6.43;;;23.20;46.30;;;;;;6147148;28;80637;-62
2022/02/27 08:51:47;;;;;;;9.23;5.75;;;23.20;46.40;;;;;;6150435;28;80661;-61
2022/02/27 08:54:48;;;;;;;18.55;6.32;;;23.10;47.40;;;;;;6144434;28;80967;-60
2022/02/27 08:57:49;;;;;;;13.45;6.20;;;23.10;47.00;;;;;;6154565;28;80312;-60
2022/02/27 09:00:49;;;;;;;10.45;6.60;;;23.30;47.60;;;;;;6147590;28;81592;-62
2022/02/27 09:03:50;;;;;;;13.05;6.20;;;23.40;48.40;;;;;;6155389;28;80470;-63
2022/02/27 09:06:51;;;;;;;8.38;5.50;;;23.40;47.60;;;;;;6151095;28;80918;-60
2022/02/27 09:09:52;;;;;;;10.45;5.78;;;23.40;47.70;;;;;;6153326;28;80581;-60
2022/02/27 09:12:52;;;;;;;12.30;5.35;;;23.50;48.30;;;;;;6144003;28;81278;-59
2022/02/27 09:15:53;;;;;;;10.45;5.55;;;23.60;48.10;;;;;;6145317;28;81380;-62
2022/02/27 09:18:54;;;;;;;8.63;4.93;;;23.70;46.60;;;;;;6149920;28;80360;-62
2022/02/27 09:21:54;;;;;;;12.93;5.63;;;23.80;46.50;;;;;;6141589;28;80407;-62
2022/02/27 09:24:55;;;;;;;11.05;6.28;;;23.90;45.50;;;;;;6146677;28;80424;-60
2022/02/27 09:27:55;;;;;;;11.13;5.80;;;24.00;44.90;;;;;;6152001;28;82409;-61
2022/02/27 09:30:56;;;;;;;11.40;5.10;;;24.10;45.00;;;;;;6149910;28;81022;-62
2022/02/27 09:33:56;;;;;;;8.95;4.78;;;24.10;45.30;;;;;;6151527;28;80649;-61
2022/02/27 09:36:57;;;;;;;8.18;4.70;;;24.10;45.40;;;;;;6143304;28;80568;-62
2022/02/27 09:39:58;;;;;;;8.52;5.05;;;24.30;45.60;;;;;;6149905;28;80704;-62
2022/02/27 09:42:59;;;;;;;8.25;4.93;;;24.40;45.80;;;;;;6146018;28;80496;-61
2022/02/27 09:46:00;;;;;;;8.77;5.95;;;24.40;45.40;;;;;;6153592;28;80448;-60
2022/02/27 09:49:00;;;;;;;9.95;5.43;;;24.40;45.20;;;;;;6157601;28;80115;-63
2022/02/27 09:52:01;;;;;;;8.07;5.60;;;24.50;45.50;;;;;;6148160;28;80499;-62
2022/02/27 09:55:01;;;;;;;9.85;5.72;;;24.60;45.20;;;;;;6138047;28;80504;-61
2022/02/27 09:58:02;;;;;;;11.18;6.10;;;24.60;45.20;;;;;;6140311;28;81919;-62
2022/02/27 10:01:02;;;;;;;8.35;4.88;;;24.70;45.80;;;;;;6140674;28;81603;-61
2022/02/27 10:04:03;;;;;;;10.77;6.07;;;24.70;45.60;;;;;;6153004;28;82908;-63
2022/02/27 10:07:03;;;;;;;9.82;6.15;;;24.80;45.40;;;;;;6151935;28;87867;-63
2022/02/27 10:10:04;;;;;;;8.85;5.43;;;24.80;45.30;;;;;;6139001;28;81642;-61
2022/02/27 10:13:06;;;;;;;9.88;5.68;;;24.90;45.50;;;;;;6141261;28;80430;-63
2022/02/27 10:16:07;;;;;;;8.07;5.35;;;24.90;45.50;;;;;;6140716;28;83454;-65
2022/02/27 10:19:07;;;;;;;12.10;6.82;;;25.00;45.60;;;;;;6144405;28;80598;-64
2022/02/27 10:22:08;;;;;;;13.48;8.10;;;25.00;45.30;;;;;;6140774;28;80916;-65
2022/02/27 10:25:08;;;;;;;15.18;7.80;;;25.00;45.10;;;;;;6148591;28;81757;-64
2022/02/27 10:28:09;;;;;;;9.30;6.32;;;25.10;44.80;;;;;;6146761;28;80038;-60
2022/02/27 10:31:09;;;;;;;11.55;6.45;;;25.10;45.40;;;;;;6153918;28;81123;-71
2022/02/27 10:34:10;;;;;;;14.40;8.13;;;25.10;45.30;;;;;;6152397;28;80286;-63
2022/02/27 10:37:12;;;;;;;15.27;8.43;;;24.90;38.20;;;;;;6153077;28;80906;-63
2022/02/27 10:40:13;;;;;;;14.15;7.82;;;24.60;37.40;;;;;;6153677;28;80912;-61
2022/02/27 10:43:13;;;;;;;13.75;7.57;;;24.40;35.60;;;;;;6153065;28;83329;-62
2022/02/27 10:46:14;;;;;;;16.83;7.38;;;24.20;34.40;;;;;;6156527;28;80630;-61
2022/02/27 10:49:14;;;;;;;17.10;7.90;;;24.00;33.80;;;;;;6158094;28;80426;-62
2022/02/27 10:52:15;;;;;;;10.60;6.75;;;23.70;33.30;;;;;;6154940;28;80377;-62
2022/02/27 10:55:16;;;;;;;11.10;6.95;;;23.50;32.10;;;;;;6141978;28;80902;-63
2022/02/27 10:58:17;;;;;;;12.55;7.13;;;23.40;32.40;;;;;;6152371;28;80429;-63
2022/02/27 11:01:18;;;;;;;11.43;7.03;;;23.10;31.70;;;;;;6156494;28;81702;-66
2022/02/27 11:04:18;;;;;;;11.00;5.90;;;22.60;31.70;;;;;;6151524;28;87304;-62
2022/02/27 11:07:19;;;;;;;10.52;5.43;;;22.80;32.90;;;;;;6156204;28;81492;-61
2022/02/27 11:10:19;;;;;;;11.48;4.95;;;23.00;34.60;;;;;;6157146;28;80141;-61
2022/02/27 11:13:20;;;;;;;9.82;4.75;;;23.40;36.50;;;;;;6150548;28;80301;-60
2022/02/27 11:16:20;;;;;;;9.32;4.60;;;23.70;38.10;;;;;;6160458;28;81224;-60
2022/02/27 11:19:21;;;;;;;3.88;2.85;;;23.90;38.50;;;;;;6159144;28;80601;-59
2022/02/27 11:22:21;;;;;;;5.60;3.35;;;24.10;39.00;;;;;;6153388;28;83037;-61
2022/02/27 11:25:22;;;;;;;6.80;3.50;;;24.20;39.30;;;;;;6144365;28;80465;-62
2022/02/27 11:28:22;;;;;;;5.80;3.70;;;24.30;39.70;;;;;;6151942;28;81500;-60
2022/02/27 11:31:23;;;;;;;4.22;2.75;;;24.40;40.30;;;;;;6159329;28;82311;-62
2022/02/27 11:34:23;;;;;;;4.05;2.80;;;24.60;40.90;;;;;;6157218;28;81562;-63
2022/02/27 11:37:24;;;;;;;8.75;3.30;;;24.60;40.70;;;;;;6152708;28;80423;-63
2022/02/27 11:40:28;;;;;;;3.78;2.83;;;24.70;40.70;;;;;;6159831;28;80441;-62
2022/02/27 11:43:28;;;;;;;4.00;2.67;;;24.70;40.90;;;;;;6157509;28;81579;-62
2022/02/27 11:46:29;;;;;;;4.75;2.95;;;24.60;40.60;;;;;;6162531;28;80320;-62
2022/02/27 11:49:29;;;;;;;3.97;2.65;;;24.60;40.40;;;;;;6155229;28;80213;-62
2022/02/27 11:52:29;;;;;;;6.35;3.10;;;24.60;40.60;;;;;;6156902;28;81255;-63
2022/02/27 11:55:30;;;;;;;4.60;2.58;;;24.50;40.60;;;;;;6153756;28;81606;-63
2022/02/27 11:58:30;;;;;;;3.10;2.55;;;24.50;40.60;;;;;;6152038;28;80555;-61
2022/02/27 12:01:31;;;;;;;4.88;2.45;;;24.40;40.70;;;;;;6157925;28;80470;-62
2022/02/27 12:04:31;;;;;;;3.33;2.28;;;24.40;41.10;;;;;;6154594;28;80681;-65
2022/02/27 12:07:32;;;;;;;4.93;2.25;;;24.30;41.00;;;;;;6149431;28;82545;-63
2022/02/27 12:10:33;;;;;;;3.80;2.20;;;24.30;40.60;;;;;;6148965;28;80798;-64
2022/02/27 12:13:33;;;;;;;6.00;1.95;;;24.20;41.20;;;;;;6155744;28;81319;-63
2022/02/27 12:16:35;;;;;;;4.75;2.10;;;24.10;41.00;;;;;;6157762;28;80448;-63
2022/02/27 12:19:35;;;;;;;3.78;2.08;;;24.10;41.30;;;;;;6155212;28;80940;-63
2022/02/27 12:22:36;;;;;;;3.22;2.38;;;24.10;41.50;;;;;;6153819;28;80670;-63
2022/02/27 12:25:36;;;;;;;3.60;2.00;;;24.00;41.90;;;;;;6144899;28;81534;-63
2022/02/27 12:28:37;;;;;;;3.83;1.83;;;24.00;42.20;;;;;;6185425;28;81927;-61
2022/02/27 12:31:37;;;;;;;3.17;2.00;;;24.00;42.20;;;;;;6158284;28;80892;-61
2022/02/27 12:34:38;;;;;;;1.92;1.58;;;24.00;42.70;;;;;;6157865;28;80876;-63
2022/02/27 12:37:38;;;;;;;2.75;2.08;;;24.00;42.50;;;;;;6152287;28;81513;-63
2022/02/27 12:40:39;;;;;;;2.05;1.63;;;23.90;42.60;;;;;;6147591;28;80347;-63
2022/02/27 12:43:39;;;;;;;4.43;2.10;;;23.90;42.70;;;;;;6144960;28;81603;-62
2022/02/27 12:46:40;;;;;;;3.50;2.72;;;24.00;42.70;;;;;;6154586;28;80128;-62
2022/02/27 12:53:00;;;;;;;7.80;2.75;;;24.00;42.60;;;;;;6153554;28;81737;-62
2022/02/27 12:56:00;;;;;;;5.32;3.30;;;24.10;41.90;;;;;;6153678;28;81536;-61
2022/02/27 12:59:01;;;;;;;5.97;3.10;;;24.20;41.20;;;;;;6144460;28;80217;-62
2022/02/27 13:02:01;;;;;;;4.53;2.60;;;24.30;41.50;;;;;;6153047;28;81777;-62
2022/02/27 13:05:04;;;;;;;3.60;2.55;;;24.30;41.10;;;;;;6156031;28;80333;-62
2022/02/27 13:08:04;;;;;;;2.70;2.22;;;24.20;40.50;;;;;;6153903;28;80902;-62
2022/02/27 13:11:05;;;;;;;7.50;2.65;;;24.20;41.00;;;;;;6156328;28;81221;-62
2022/02/27 13:14:06;;;;;;;3.63;2.22;;;24.20;40.80;;;;;;6156574;28;80949;-62
2022/02/27 13:17:06;;;;;;;4.10;2.58;;;24.20;40.60;;;;;;6157785;28;80357;-61
2022/02/27 13:20:07;;;;;;;12.30;2.47;;;24.10;40.20;;;;;;6157944;28;80969;-62
2022/02/27 13:23:07;;;;;;;7.30;2.85;;;24.10;40.20;;;;;;6147749;28;80604;-60
2022/02/27 13:26:08;;;;;;;5.43;2.60;;;24.10;39.90;;;;;;6143573;28;80825;-63
2022/02/27 13:29:08;;;;;;;6.45;2.30;;;24.00;39.90;;;;;;6148737;28;80895;-62
2022/02/27 13:32:09;;;;;;;7.53;4.63;;;24.00;39.90;;;;;;6141142;28;80711;-62
2022/02/27 13:35:12;;;;;;;9.38;4.43;;;23.90;39.80;;;;;;6148097;28;80354;-62
2022/02/27 13:38:15;;;;;;;4.70;3.08;;;23.90;40.00;;;;;;6156601;28;80496;-63
2022/02/27 13:41:16;;;;;;;5.97;2.88;;;23.90;40.10;;;;;;6155193;28;80901;-63
2022/02/27 13:44:16;;;;;;;3.83;2.63;;;23.90;40.50;;;;;;6149486;28;80562;-63
2022/02/27 13:47:17;;;;;;;6.15;2.92;;;23.90;40.70;;;;;;6150290;28;80512;-62
2022/02/27 13:50:17;;;;;;;7.78;2.72;;;23.90;40.40;;;;;;6150810;28;80530;-63
2022/02/27 13:53:18;;;;;;;4.82;2.78;;;23.90;40.40;;;;;;6143914;28;87793;-66
2022/02/27 13:56:19;;;;;;;6.15;2.90;;;23.90;40.40;;;;;;6153536;28;81394;-65
2022/02/27 13:59:19;;;;;;;7.50;3.38;;;23.90;40.10;;;;;;6149102;28;80856;-64
2022/02/27 14:02:20;;;;;;;5.28;2.67;;;23.80;40.00;;;;;;6155590;28;81461;-62
2022/02/27 14:05:20;;;;;;;5.88;3.20;;;23.80;39.90;;;;;;6148522;28;81119;-63
2022/02/27 14:08:23;;;;;;;3.60;2.55;;;23.80;40.00;;;;;;6145081;28;81135;-62
2022/02/27 14:11:23;;;;;;;3.42;2.55;;;23.80;40.20;;;;;;6143111;28;80511;-61
2022/02/27 14:14:25;;;;;;;6.07;3.00;;;23.80;41.10;;;;;;6140087;28;80512;-61
2022/02/27 14:17:25;;;;;;;4.60;2.53;;;23.80;40.20;;;;;;6147055;28;80665;-61
2022/02/27 14:20:26;;;;;;;4.75;2.78;;;23.80;40.20;;;;;;6158115;28;80744;-62
2022/02/27 14:23:27;;;;;;;3.88;2.72;;;23.70;40.20;;;;;;6155811;28;82463;-62
2022/02/27 14:26:27;;;;;;;3.25;2.33;;;23.70;40.30;;;;;;6155136;28;80562;-61
2022/02/27 14:29:28;;;;;;;4.10;2.55;;;23.70;40.20;;;;;;6150086;28;80415;-62
2022/02/27 14:32:29;;;;;;;5.38;2.78;;;23.70;40.20;;;;;;6155837;28;80490;-61
2022/02/27 14:35:29;;;;;;;4.07;2.47;;;23.70;40.20;;;;;;6147240;28;80429;-61
2022/02/27 14:38:30;;;;;;;5.95;2.30;;;23.70;40.20;;;;;;6156245;28;80557;-61
2022/02/27 14:41:30;;;;;;;3.67;2.10;;;23.70;40.20;;;;;;6156027;28;81005;-61
2022/02/27 14:44:31;;;;;;;2.90;2.10;;;23.70;40.20;;;;;;6149900;28;81348;-61
2022/02/27 14:47:31;;;;;;;5.10;2.47;;;23.70;40.30;;;;;;6156221;28;81486;-61
2022/02/27 14:50:32;;;;;;;5.80;2.53;;;23.60;40.30;;;;;;6152727;28;80678;-61
2022/02/27 14:53:33;;;;;;;3.42;2.13;;;23.70;40.30;;;;;;6156495;28;81593;-62
2022/02/27 14:56:34;;;;;;;4.63;2.45;;;23.60;40.40;;;;;;6155544;28;81764;-61
2022/02/27 14:59:34;;;;;;;3.60;2.35;;;23.60;40.30;;;;;;6158322;28;81481;-61
2022/02/27 15:02:35;;;;;;;4.25;2.50;;;23.60;40.30;;;;;;6160974;28;81412;-59
2022/02/27 15:05:35;;;;;;;5.40;2.25;;;23.60;40.20;;;;;;6157138;28;81185;-61
2022/02/27 15:08:36;;;;;;;4.32;2.47;;;23.60;40.40;;;;;;6155259;28;81046;-62
2022/02/27 15:11:36;;;;;;;2.65;2.00;;;23.60;40.30;;;;;;6156943;28;81606;-62
2022/02/27 15:14:38;;;;;;;5.70;2.42;;;23.60;40.30;;;;;;6152878;28;80885;-62
2022/02/27 15:17:39;;;;;;;4.57;2.25;;;23.60;40.40;;;;;;6153084;28;81385;-62
2022/02/27 15:20:39;;;;;;;12.50;2.65;;;23.60;40.80;;;;;;6155599;28;81620;-63
2022/02/27 15:23:44;;;;;;;3.40;2.15;;;23.60;40.80;;;;;;6152110;28;80428;-60
2022/02/27 15:26:44;;;;;;;3.63;2.47;;;23.60;40.30;;;;;;6160991;28;80580;-60
2022/02/27 15:29:45;;;;;;;4.53;2.60;;;23.60;40.20;;;;;;6158838;28;80369;-61